createdAt,value
2023-04-18T00:00:12.185Z,3.60
2023-04-18T00:02:45.791Z,4.13
2023-04-18T00:05:19.725Z,3.50
2023-04-18T00:07:53.362Z,4.73
2023-04-18T00:10:26.582Z,5.20
2023-04-18T00:13:00.403Z,5.40
2023-04-18T00:15:35.444Z,3.67
2023-04-18T00:18:08.695Z,3.80
2023-04-18T00:20:42.255Z,4.90
2023-04-18T00:23:16.322Z,4.27
2023-04-18T00:25:49.866Z,7.60
2023-04-18T00:28:23.094Z,6.97
2023-04-18T00:30:56.712Z,6.20
2023-04-18T00:33:29.964Z,7.10
2023-04-18T00:36:03.377Z,4.37
2023-04-18T00:38:36.590Z,4.20
2023-04-18T00:41:09.978Z,7.77
2023-04-18T00:43:43.172Z,4.33
2023-04-18T00:46:16.373Z,6.90
2023-04-18T00:48:50.707Z,7.50
2023-04-18T00:51:23.962Z,7.70
2023-04-18T00:53:57.461Z,8.60
2023-04-18T00:56:31.027Z,7.83
2023-04-18T00:59:04.290Z,10.17
2023-04-18T01:01:40.293Z,6.80
2023-04-18T01:04:13.985Z,6.83
2023-04-18T01:06:47.606Z,10.03
2023-04-18T01:09:21.166Z,8.90
2023-04-18T01:11:54.411Z,10.07
2023-04-18T01:14:27.596Z,10.50
2023-04-18T01:17:01.517Z,13.03
2023-04-18T01:19:35.219Z,10.57
2023-04-18T01:22:08.720Z,11.23
2023-04-18T01:24:42.200Z,9.60
2023-04-18T01:27:15.610Z,14.00
2023-04-18T01:29:48.820Z,11.20
2023-04-18T01:32:23.286Z,11.60
2023-04-18T01:34:56.490Z,10.20
2023-04-18T01:37:29.685Z,13.13
2023-04-18T01:40:03.549Z,14.73
2023-04-18T01:42:36.790Z,11.27
2023-04-18T01:45:10.223Z,13.47
2023-04-18T01:47:46.989Z,13.10
2023-04-18T01:50:20.396Z,13.70
2023-04-18T01:52:53.558Z,12.40
2023-04-18T01:55:26.761Z,13.13
2023-04-18T01:57:59.961Z,16.67
2023-04-18T02:00:33.240Z,12.27
2023-04-18T02:03:06.691Z,10.30
2023-04-18T02:05:40.006Z,14.60
2023-04-18T02:08:13.613Z,13.70
2023-04-18T02:10:46.797Z,12.67
2023-04-18T02:13:20.005Z,15.40
2023-04-18T02:15:53.317Z,13.33
2023-04-18T02:18:27.915Z,16.00
2023-04-18T02:21:01.207Z,20.90
2023-04-18T02:23:34.370Z,22.37
2023-04-18T02:26:07.617Z,14.47
2023-04-18T02:28:40.837Z,13.97
2023-04-18T02:31:15.145Z,13.87
2023-04-18T02:33:48.440Z,16.13
2023-04-18T02:36:21.577Z,14.13
2023-04-18T02:38:55.448Z,13.13
2023-04-18T02:41:28.717Z,16.37
2023-04-18T02:44:01.970Z,12.90
2023-04-18T02:46:35.294Z,12.37
2023-04-18T02:49:08.495Z,13.80
2023-04-18T02:51:41.696Z,12.90
2023-04-18T02:54:15.087Z,13.80
2023-04-18T02:56:48.431Z,15.10
2023-04-18T02:59:21.632Z,16.20
2023-04-18T03:01:54.849Z,14.53
2023-04-18T03:04:28.111Z,18.70
2023-04-18T03:07:01.339Z,14.07
2023-04-18T03:09:34.544Z,14.27
2023-04-18T03:12:07.710Z,15.90
2023-04-18T03:14:41.197Z,14.47
2023-04-18T03:17:14.549Z,12.73
2023-04-18T03:19:47.858Z,12.27
2023-04-18T03:22:21.082Z,12.03
2023-04-18T03:24:54.271Z,12.20
2023-04-18T03:27:27.503Z,13.37
2023-04-18T03:30:00.714Z,11.63
2023-04-18T03:32:35.195Z,9.90
2023-04-18T03:35:08.584Z,12.43
2023-04-18T03:37:41.769Z,13.10
2023-04-18T03:40:15.017Z,13.77
2023-04-18T03:42:48.225Z,11.20
2023-04-18T03:45:21.428Z,11.67
2023-04-18T03:47:54.947Z,11.10
2023-04-18T03:50:28.497Z,12.20
2023-04-18T03:53:01.730Z,13.10
2023-04-18T03:55:34.962Z,14.63
2023-04-18T03:58:08.176Z,12.33
2023-04-18T04:00:41.530Z,15.60
2023-04-18T04:03:14.826Z,10.87
2023-04-18T04:05:48.173Z,15.63
2023-04-18T04:08:21.854Z,16.97
2023-04-18T04:10:55.123Z,12.07
2023-04-18T04:13:31.195Z,10.80
2023-04-18T04:16:04.498Z,14.80
2023-04-18T04:18:37.672Z,13.37
2023-04-18T04:21:10.905Z,11.47
2023-04-18T04:23:44.170Z,12.77
2023-04-18T04:26:17.370Z,13.00
2023-04-18T04:28:51.663Z,13.47
2023-04-18T04:31:24.863Z,13.53
2023-04-18T04:33:58.239Z,12.97
2023-04-18T04:36:33.514Z,12.37
2023-04-18T04:39:08.741Z,13.80
2023-04-18T04:41:41.913Z,8.40
2023-04-18T04:44:18.031Z,13.30
2023-04-18T04:46:51.247Z,15.10
2023-04-18T04:49:24.551Z,13.87
2023-04-18T04:51:58.668Z,10.97
2023-04-18T04:54:33.003Z,11.43
2023-04-18T04:57:06.737Z,15.60
2023-04-18T04:59:40.070Z,11.80
2023-04-18T05:02:13.528Z,13.83
2023-04-18T05:04:46.793Z,13.50
2023-04-18T05:07:19.968Z,15.17
2023-04-18T05:09:53.506Z,12.50
2023-04-18T05:12:26.843Z,15.60
2023-04-18T05:15:00.056Z,12.23
2023-04-18T05:17:33.262Z,12.83
2023-04-18T05:20:07.015Z,13.40
2023-04-18T05:22:40.495Z,14.50
2023-04-18T05:25:13.979Z,13.00
2023-04-18T05:27:47.306Z,11.73
2023-04-18T05:30:20.696Z,13.50
2023-04-18T05:32:53.957Z,10.13
2023-04-18T05:35:27.221Z,10.97
2023-04-18T05:38:00.636Z,13.47
2023-04-18T05:40:33.879Z,13.40
2023-04-18T05:43:07.035Z,12.67
2023-04-18T05:45:40.253Z,14.87
2023-04-18T05:48:13.788Z,10.23
2023-04-18T05:50:47.006Z,12.00
2023-04-18T05:53:20.369Z,12.00
2023-04-18T05:55:53.641Z,12.67
2023-04-18T05:58:28.715Z,13.90
2023-04-18T06:01:02.116Z,11.03
2023-04-18T06:03:35.825Z,11.20
2023-04-18T06:06:10.050Z,11.73
2023-04-18T06:08:43.513Z,9.67
2023-04-18T06:11:16.752Z,13.40
2023-04-18T06:13:49.972Z,11.73
2023-04-18T06:16:23.249Z,11.10
2023-04-18T06:18:59.657Z,10.87
2023-04-18T06:21:34.494Z,8.33
2023-04-18T06:24:07.749Z,7.47
2023-04-18T06:26:40.989Z,8.97
2023-04-18T06:29:14.193Z,8.07
2023-04-18T06:31:48.324Z,8.73
2023-04-18T06:34:21.670Z,9.57
2023-04-18T06:36:55.162Z,8.80
2023-04-18T06:39:28.357Z,10.20
2023-04-18T06:42:02.588Z,9.03
2023-04-18T06:44:36.587Z,10.70
2023-04-18T06:47:10.531Z,6.67
2023-04-18T06:49:43.777Z,7.73
2023-04-18T06:52:16.986Z,7.00
2023-04-18T06:54:51.308Z,6.67
2023-04-18T06:57:24.555Z,7.20
2023-04-18T06:59:57.926Z,8.10
2023-04-18T07:02:31.348Z,10.93
2023-04-18T07:05:04.933Z,8.37
2023-04-18T07:07:38.173Z,5.83
2023-04-18T07:10:11.790Z,6.20
2023-04-18T07:12:45.142Z,9.10
2023-04-18T07:15:18.631Z,10.70
2023-04-18T07:17:51.985Z,10.90
2023-04-18T07:20:25.252Z,10.67
2023-04-18T07:22:58.419Z,5.70
2023-04-18T07:25:32.391Z,10.80
2023-04-18T07:28:05.901Z,9.17
2023-04-18T07:30:39.129Z,10.60
2023-04-18T07:33:12.406Z,9.30
2023-04-18T07:35:46.640Z,8.40
2023-04-18T07:38:19.904Z,11.10
2023-04-18T07:40:59.839Z,6.93
2023-04-18T07:43:33.097Z,10.43
2023-04-18T07:46:07.136Z,11.37
2023-04-18T07:48:40.655Z,8.90
2023-04-18T07:51:13.831Z,7.80
2023-04-18T07:53:47.036Z,8.70
2023-04-18T07:56:20.483Z,9.30
2023-04-18T07:58:53.814Z,10.90
2023-04-18T08:01:27.306Z,10.87
2023-04-18T08:04:02.033Z,12.23
2023-04-18T08:06:35.711Z,9.47
2023-04-18T08:09:09.116Z,7.87
2023-04-18T08:11:43.067Z,8.03
2023-04-18T08:14:16.373Z,7.83
2023-04-18T08:16:49.608Z,10.13
2023-04-18T08:19:23.732Z,8.47
2023-04-18T08:22:07.464Z,7.07
2023-04-18T08:24:42.883Z,9.40
2023-04-18T08:27:21.799Z,9.77
2023-04-18T08:29:55.885Z,11.90
2023-04-18T08:32:29.189Z,7.97
2023-04-18T08:35:03.759Z,8.20
2023-04-18T08:37:36.982Z,8.87
2023-04-18T08:40:10.250Z,6.90
2023-04-18T08:42:47.551Z,9.03
2023-04-18T08:45:21.087Z,9.00
2023-04-18T08:47:56.003Z,7.37
2023-04-18T08:50:29.300Z,8.27
2023-04-18T08:53:02.722Z,7.60
2023-04-18T08:55:36.294Z,12.10
2023-04-18T08:58:12.293Z,7.73
2023-04-18T09:00:50.410Z,9.50
2023-04-18T09:03:37.654Z,7.83
2023-04-18T09:06:18.708Z,6.80
2023-04-18T09:08:59.136Z,8.53
2023-04-18T09:11:34.484Z,8.17
2023-04-18T09:14:07.837Z,9.00
2023-04-18T09:16:47.264Z,9.43
2023-04-18T09:19:21.612Z,10.67
2023-04-18T09:21:58.868Z,7.37
2023-04-18T09:24:32.481Z,9.97
2023-04-18T09:27:15.502Z,10.00
2023-04-18T09:29:52.795Z,6.53
2023-04-18T09:32:27.532Z,6.60
2023-04-18T09:35:04.611Z,8.23
2023-04-18T09:37:38.240Z,6.80
2023-04-18T09:40:23.541Z,6.53
2023-04-18T09:42:57.028Z,8.83
2023-04-18T09:45:30.222Z,9.67
2023-04-18T09:48:03.610Z,9.20
2023-04-18T09:50:37.879Z,11.20
2023-04-18T09:53:13.331Z,8.50
2023-04-18T09:55:47.603Z,8.33
2023-04-18T09:58:24.922Z,8.70
2023-04-18T10:00:58.493Z,7.20
2023-04-18T10:03:39.446Z,7.93
2023-04-18T10:06:12.712Z,11.07
2023-04-18T10:08:48.633Z,12.00
2023-04-18T10:11:22.207Z,9.33
2023-04-18T10:13:57.533Z,13.23
2023-04-18T10:16:32.114Z,9.47
2023-04-18T10:19:26.275Z,12.10
2023-04-18T10:22:00.337Z,13.13
2023-04-18T10:24:46.877Z,11.00
2023-04-18T10:27:40.000Z,11.63
2023-04-18T10:30:13.373Z,9.77
2023-04-18T10:32:47.054Z,10.53
2023-04-18T10:35:21.844Z,14.77
2023-04-18T10:37:59.753Z,12.20
2023-04-18T10:40:36.795Z,10.50
2023-04-18T10:43:10.019Z,9.87
2023-04-18T10:45:43.178Z,12.00
2023-04-18T10:48:29.430Z,13.27
2023-04-18T10:51:29.071Z,13.80
2023-04-18T10:54:03.426Z,10.37
2023-04-18T10:56:36.729Z,8.47
2023-04-18T10:59:10.338Z,12.00
2023-04-18T11:01:46.988Z,13.80
2023-04-18T11:04:20.502Z,11.73
2023-04-18T11:06:58.337Z,9.67
2023-04-18T11:09:31.716Z,9.07
2023-04-18T11:12:12.578Z,11.70
2023-04-18T11:14:47.176Z,10.07
2023-04-18T11:17:21.863Z,12.47
2023-04-18T11:20:14.848Z,9.80
2023-04-18T11:22:49.807Z,9.73
2023-04-18T11:25:35.196Z,10.23
2023-04-18T11:28:09.821Z,14.57
2023-04-18T11:30:43.259Z,13.20
2023-04-18T11:33:16.787Z,13.40
2023-04-18T11:35:50.637Z,9.80
2023-04-18T11:38:29.660Z,14.67
2023-04-18T11:41:03.583Z,11.87
2023-04-18T11:43:36.920Z,10.13
2023-04-18T11:46:10.283Z,14.57
2023-04-18T11:48:47.751Z,16.63
2023-04-18T11:51:47.984Z,11.50
2023-04-18T11:54:37.056Z,13.93
2023-04-18T11:57:21.025Z,10.33
2023-04-18T11:59:54.254Z,11.40
2023-04-18T12:02:28.928Z,13.03
2023-04-18T12:05:02.590Z,12.40
2023-04-18T12:07:37.330Z,13.50
2023-04-18T12:10:23.438Z,8.30
2023-04-18T12:13:00.741Z,12.07
2023-04-18T12:15:33.961Z,12.67
2023-04-18T12:18:08.452Z,8.13
2023-04-18T12:20:52.377Z,13.10
2023-04-18T12:23:33.643Z,11.50
2023-04-18T12:26:07.666Z,12.27
2023-04-18T12:28:45.141Z,13.77
2023-04-18T12:31:18.770Z,12.20
2023-04-18T12:33:51.969Z,9.17
2023-04-18T12:36:29.225Z,14.07
2023-04-18T12:39:02.578Z,15.50
2023-04-18T12:41:36.158Z,13.30
2023-04-18T12:44:09.376Z,15.57
2023-04-18T12:46:42.594Z,9.80
2023-04-18T12:49:15.891Z,12.33
2023-04-18T12:51:49.064Z,13.07
2023-04-18T12:54:22.302Z,12.17
2023-04-18T12:56:55.454Z,12.80
2023-04-18T12:59:29.504Z,12.00
2023-04-18T13:02:03.093Z,12.17
2023-04-18T13:04:36.570Z,12.30
2023-04-18T13:07:10.063Z,13.10
2023-04-18T13:09:43.293Z,11.70
2023-04-18T13:12:16.860Z,9.80
2023-04-18T13:14:50.225Z,10.70
2023-04-18T13:17:28.014Z,9.80
2023-04-18T13:20:01.906Z,11.30
2023-04-18T13:22:35.400Z,11.37
2023-04-18T13:25:10.563Z,11.50
2023-04-18T13:27:45.273Z,11.37
2023-04-18T13:30:18.863Z,10.20
2023-04-18T13:32:55.103Z,12.50
2023-04-18T13:35:28.854Z,12.77
2023-04-18T13:38:02.204Z,9.33
2023-04-18T13:40:36.179Z,12.47
2023-04-18T13:43:14.090Z,15.27
2023-04-18T13:45:47.552Z,12.03
2023-04-18T13:48:21.005Z,10.00
2023-04-18T13:50:54.621Z,9.33
2023-04-18T13:53:30.223Z,12.90
2023-04-18T13:56:04.610Z,11.00
2023-04-18T13:58:38.182Z,8.60
2023-04-18T14:01:14.127Z,13.40
2023-04-18T14:03:47.760Z,9.07
2023-04-18T14:06:21.343Z,10.80
2023-04-18T14:08:58.583Z,9.33
2023-04-18T14:11:31.990Z,12.23
2023-04-18T14:14:05.991Z,10.83
2023-04-18T14:16:39.381Z,11.30
2023-04-18T14:19:13.279Z,8.93
2023-04-18T14:21:48.291Z,9.63
2023-04-18T14:24:21.660Z,11.47
2023-04-18T14:26:55.192Z,12.63
2023-04-18T14:29:28.668Z,9.73
2023-04-18T14:32:01.891Z,10.57
2023-04-18T14:34:36.625Z,10.50
2023-04-18T14:37:10.724Z,8.60
2023-04-18T14:39:44.021Z,9.03
2023-04-18T14:42:17.629Z,9.70
2023-04-18T14:44:51.383Z,9.87
2023-04-18T14:47:30.878Z,10.03
2023-04-18T14:50:04.656Z,6.60
2023-04-18T14:52:38.213Z,9.30
2023-04-18T14:55:11.904Z,9.43
2023-04-18T14:57:45.907Z,7.70
2023-04-18T15:00:19.529Z,8.47
2023-04-18T15:02:53.409Z,8.37
2023-04-18T15:05:29.628Z,8.97
2023-04-18T15:08:04.445Z,6.90
2023-04-18T15:10:38.469Z,7.33
2023-04-18T15:13:12.119Z,10.30
2023-04-18T15:15:51.979Z,9.23
2023-04-18T15:18:25.331Z,9.30
2023-04-18T15:21:02.000Z,11.43
2023-04-18T15:23:40.893Z,9.90
2023-04-18T15:26:14.331Z,9.20
2023-04-18T15:28:47.868Z,11.03
2023-04-18T15:31:21.878Z,11.27
2023-04-18T15:33:55.909Z,8.70
2023-04-18T15:36:29.255Z,10.40
2023-04-18T15:39:05.860Z,8.13
2023-04-18T15:41:39.273Z,10.57
2023-04-18T15:44:12.750Z,10.57
2023-04-18T15:46:46.054Z,9.33
2023-04-18T15:49:19.282Z,11.20
2023-04-18T15:51:52.494Z,9.63
2023-04-18T15:54:25.789Z,10.60
2023-04-18T15:56:59.157Z,7.53
2023-04-18T15:59:32.473Z,10.80
2023-04-18T16:02:06.741Z,10.43
2023-04-18T16:04:40.290Z,11.03
2023-04-18T16:07:13.711Z,11.50
2023-04-18T16:09:46.939Z,7.83
2023-04-18T16:12:20.196Z,13.10
2023-04-18T16:14:56.382Z,12.40
2023-04-18T16:17:29.559Z,11.30
2023-04-18T16:20:03.546Z,9.97
2023-04-18T16:22:37.036Z,12.17
2023-04-18T16:25:10.429Z,14.17
2023-04-18T16:27:43.831Z,10.30
2023-04-18T16:30:17.003Z,14.40
2023-04-18T16:32:50.293Z,14.13
2023-04-18T16:35:23.853Z,12.13
2023-04-18T16:37:57.050Z,15.67
2023-04-18T16:40:31.886Z,11.80
2023-04-18T16:43:05.130Z,10.30
2023-04-18T16:45:38.543Z,11.40
2023-04-18T16:48:11.899Z,11.37
2023-04-18T16:50:50.385Z,8.63
2023-04-18T16:53:23.999Z,11.20
2023-04-18T16:55:57.605Z,10.27
2023-04-18T16:58:30.977Z,10.77
2023-04-18T17:01:04.231Z,9.20
2023-04-18T17:03:37.940Z,12.40
2023-04-18T17:06:11.276Z,11.00
2023-04-18T17:08:44.474Z,11.97
2023-04-18T17:11:17.672Z,10.03
2023-04-18T17:13:51.233Z,10.27
2023-04-18T17:16:24.525Z,12.17
2023-04-18T17:18:57.809Z,11.70
2023-04-18T17:21:31.812Z,8.30
2023-04-18T17:24:06.968Z,15.20
2023-04-18T17:26:40.681Z,9.10
2023-04-18T17:29:14.223Z,10.07
2023-04-18T17:31:48.149Z,8.40
2023-04-18T17:34:21.452Z,8.73
2023-04-18T17:36:54.688Z,9.90
2023-04-18T17:39:28.062Z,8.73
2023-04-18T17:42:02.518Z,10.53
2023-04-18T17:44:39.713Z,9.83
2023-04-18T17:47:13.052Z,11.07
2023-04-18T17:49:46.607Z,11.40
2023-04-18T17:52:21.368Z,11.10
2023-04-18T17:54:55.751Z,9.17
2023-04-18T17:57:30.729Z,11.17
2023-04-18T18:00:10.509Z,11.07
2023-04-18T18:02:44.161Z,8.63
2023-04-18T18:05:17.559Z,10.50
2023-04-18T18:07:53.076Z,7.80
2023-04-18T18:10:26.787Z,12.40
2023-04-18T18:13:00.015Z,8.17
2023-04-18T18:15:33.549Z,10.50
2023-04-18T18:18:06.866Z,9.50
2023-04-18T18:20:42.994Z,8.73
2023-04-18T18:23:16.702Z,9.73
2023-04-18T18:25:50.661Z,9.80
2023-04-18T18:28:24.299Z,9.00
2023-04-18T18:30:57.782Z,8.00
2023-04-18T18:33:34.157Z,9.47
2023-04-18T18:36:07.540Z,7.70
2023-04-18T18:38:40.759Z,9.97
2023-04-18T18:41:13.946Z,7.80
2023-04-18T18:43:47.122Z,8.00
2023-04-18T18:46:20.670Z,8.67
2023-04-18T18:48:54.051Z,6.60
2023-04-18T18:51:27.876Z,6.80
2023-04-18T18:54:01.328Z,8.27
2023-04-18T18:56:34.656Z,9.23
2023-04-18T18:59:07.836Z,10.87
2023-04-18T19:01:41.127Z,9.90
2023-04-18T19:04:14.576Z,10.03
2023-04-18T19:06:48.053Z,7.30
2023-04-18T19:09:21.537Z,9.50
2023-04-18T19:11:55.049Z,10.37
2023-04-18T19:14:28.286Z,8.83
2023-04-18T19:17:01.682Z,9.60
2023-04-18T19:19:35.008Z,12.87
2023-04-18T19:22:08.342Z,9.23
2023-04-18T19:24:41.515Z,9.80
2023-04-18T19:27:14.880Z,8.93
2023-04-18T19:29:48.189Z,9.07
2023-04-18T19:32:21.921Z,11.10
2023-04-18T19:34:55.163Z,8.40
2023-04-18T19:37:28.404Z,8.20
2023-04-18T19:40:02.528Z,9.37
2023-04-18T19:42:35.879Z,8.77
2023-04-18T19:45:11.212Z,10.03
2023-04-18T19:47:44.983Z,9.33
2023-04-18T19:50:18.239Z,8.67
2023-04-18T19:52:51.538Z,9.07
2023-04-18T19:55:25.227Z,9.57
2023-04-18T19:57:59.582Z,10.07
2023-04-18T20:00:34.282Z,9.70
2023-04-18T20:03:07.703Z,9.70
2023-04-18T20:05:41.272Z,11.53
2023-04-18T20:08:15.402Z,9.20
2023-04-18T20:10:48.576Z,9.93
2023-04-18T20:13:21.854Z,9.23
2023-04-18T20:15:56.230Z,9.70
2023-04-18T20:18:31.617Z,10.40
2023-04-18T20:21:07.536Z,10.10
2023-04-18T20:23:42.100Z,10.37
2023-04-18T20:26:15.717Z,9.70
2023-04-18T20:28:49.127Z,11.10
2023-04-18T20:31:22.310Z,9.70
2023-04-18T20:33:55.609Z,9.27
2023-04-18T20:36:31.027Z,8.97
2023-04-18T20:39:06.303Z,8.93
2023-04-18T20:41:46.567Z,7.73
2023-04-18T20:44:21.555Z,9.33
2023-04-18T20:46:54.834Z,10.70
2023-04-18T20:49:29.719Z,8.87
2023-04-18T20:52:02.950Z,8.67
2023-04-18T20:54:36.402Z,9.10
2023-04-18T20:57:09.682Z,7.87
2023-04-18T20:59:42.920Z,9.73
2023-04-18T21:02:16.295Z,8.47
2023-04-18T21:04:49.855Z,6.97
2023-04-18T21:07:23.074Z,9.70
2023-04-18T21:09:56.541Z,8.97
2023-04-18T21:12:29.706Z,9.53
2023-04-18T21:15:03.269Z,9.53
2023-04-18T21:17:36.538Z,8.20
2023-04-18T21:20:09.971Z,6.70
2023-04-18T21:22:43.135Z,8.50
2023-04-18T21:25:16.804Z,7.93
2023-04-18T21:27:50.768Z,11.97
2023-04-18T21:30:24.127Z,9.90
2023-04-18T21:32:57.335Z,7.77
2023-04-18T21:35:30.752Z,9.20
2023-04-18T21:38:03.945Z,9.60
2023-04-18T21:40:37.817Z,7.87
2023-04-18T21:43:11.237Z,8.70
2023-04-18T21:45:44.440Z,7.00
2023-04-18T21:48:17.629Z,6.00
2023-04-18T21:50:56.873Z,8.90
2023-04-18T21:53:30.057Z,7.70
2023-04-18T21:56:03.292Z,7.03
2023-04-18T21:58:36.474Z,6.70
2023-04-18T22:01:09.792Z,7.73
2023-04-18T22:03:43.152Z,7.63
2023-04-18T22:06:16.622Z,5.93
2023-04-18T22:08:50.046Z,7.40
2023-04-18T22:11:23.617Z,9.20
2023-04-18T22:13:58.112Z,10.30
2023-04-18T22:16:33.417Z,9.77
2023-04-18T22:19:08.999Z,9.80
2023-04-18T22:21:42.144Z,7.20
2023-04-18T22:24:15.509Z,7.80
2023-04-18T22:26:49.076Z,7.67
2023-04-18T22:29:22.285Z,8.10
2023-04-18T22:31:55.437Z,6.37
2023-04-18T22:34:28.639Z,7.87
2023-04-18T22:37:01.835Z,9.47
2023-04-18T22:39:35.198Z,9.63
2023-04-18T22:42:08.409Z,9.93
2023-04-18T22:44:41.621Z,7.90
2023-04-18T22:47:14.764Z,7.77
2023-04-18T22:49:47.922Z,9.70
2023-04-18T22:52:24.649Z,6.87
2023-04-18T22:54:57.836Z,7.27
2023-04-18T22:57:31.064Z,7.73
2023-04-18T23:00:06.345Z,6.97
2023-04-18T23:02:39.705Z,5.40
2023-04-18T23:05:15.457Z,8.20
2023-04-18T23:07:48.656Z,9.80
2023-04-18T23:10:21.916Z,6.50
2023-04-18T23:12:55.118Z,8.53
2023-04-18T23:15:28.334Z,7.50
2023-04-18T23:18:01.640Z,7.57
2023-04-18T23:20:36.300Z,7.93
2023-04-18T23:23:09.512Z,8.80
2023-04-18T23:25:42.709Z,7.90
2023-04-18T23:28:17.125Z,7.13
2023-04-18T23:30:50.453Z,6.70
2023-04-18T23:33:23.646Z,8.37
2023-04-18T23:35:56.823Z,7.57
2023-04-18T23:38:31.148Z,9.00
2023-04-18T23:41:04.350Z,7.40
2023-04-18T23:43:37.590Z,5.67
2023-04-18T23:46:12.065Z,5.70
2023-04-18T23:48:45.309Z,6.93
2023-04-18T23:51:19.046Z,7.20
2023-04-18T23:53:52.218Z,6.70
2023-04-18T23:56:25.517Z,5.67
2023-04-18T23:58:58.685Z,6.97
